sensor_id;sensor_type;location;lat;lon;timestamp;P1;durP1;ratioP1;P2;durP2;ratioP2
38693;SDS011;24447;43.460;25.744;2023-12-20T00:01:31;13.73;;;4.05;;
38693;SDS011;24447;43.460;25.744;2023-12-20T00:03:57;9.02;;;2.97;;
38693;SDS011;24447;43.460;25.744;2023-12-20T00:06:23;5.10;;;1.73;;
38693;SDS011;24447;43.460;25.744;2023-12-20T00:08:49;5.13;;;3.08;;
38693;SDS011;24447;43.460;25.744;2023-12-20T00:11:15;14.77;;;5.10;;
38693;SDS011;24447;43.460;25.744;2023-12-20T00:13:41;12.23;;;4.55;;
38693;SDS011;24447;43.460;25.744;2023-12-20T00:16:07;10.43;;;3.58;;
38693;SDS011;24447;43.460;25.744;2023-12-20T00:18:32;6.80;;;2.40;;
38693;SDS011;24447;43.460;25.744;2023-12-20T00:20:58;12.93;;;4.38;;
38693;SDS011;24447;43.460;25.744;2023-12-20T00:23:24;8.40;;;3.25;;
38693;SDS011;24447;43.460;25.744;2023-12-20T00:25:50;13.65;;;3.95;;
38693;SDS011;24447;43.460;25.744;2023-12-20T00:28:16;6.32;;;2.72;;
38693;SDS011;24447;43.460;25.744;2023-12-20T00:30:42;14.43;;;3.47;;
38693;SDS011;24447;43.460;25.744;2023-12-20T00:33:08;10.75;;;3.30;;
38693;SDS011;24447;43.460;25.744;2023-12-20T00:35:34;9.45;;;3.17;;
38693;SDS011;24447;43.460;25.744;2023-12-20T00:38:00;16.17;;;5.38;;
38693;SDS011;24447;43.460;25.744;2023-12-20T00:40:26;6.07;;;2.83;;
38693;SDS011;24447;43.460;25.744;2023-12-20T00:42:52;19.27;;;6.78;;
38693;SDS011;24447;43.460;25.744;2023-12-20T00:45:18;11.25;;;3.80;;
38693;SDS011;24447;43.460;25.744;2023-12-20T00:47:43;14.52;;;4.32;;
38693;SDS011;24447;43.460;25.744;2023-12-20T00:50:09;15.50;;;3.15;;
38693;SDS011;24447;43.460;25.744;2023-12-20T00:52:35;10.60;;;4.10;;
38693;SDS011;24447;43.460;25.744;2023-12-20T00:55:01;16.50;;;3.85;;
38693;SDS011;24447;43.460;25.744;2023-12-20T00:57:28;10.57;;;2.85;;
38693;SDS011;24447;43.460;25.744;2023-12-20T00:59:54;12.15;;;4.13;;
38693;SDS011;24447;43.460;25.744;2023-12-20T01:02:20;8.10;;;3.15;;
38693;SDS011;24447;43.460;25.744;2023-12-20T01:04:46;11.55;;;4.22;;
38693;SDS011;24447;43.460;25.744;2023-12-20T01:07:12;18.35;;;7.03;;
38693;SDS011;24447;43.460;25.744;2023-12-20T01:09:38;15.20;;;5.25;;
38693;SDS011;24447;43.460;25.744;2023-12-20T01:12:04;17.15;;;4.90;;
38693;SDS011;24447;43.460;25.744;2023-12-20T01:14:30;16.45;;;6.82;;
38693;SDS011;24447;43.460;25.744;2023-12-20T01:16:55;10.25;;;3.55;;
38693;SDS011;24447;43.460;25.744;2023-12-20T01:19:21;16.30;;;4.40;;
38693;SDS011;24447;43.460;25.744;2023-12-20T01:21:49;18.27;;;6.05;;
38693;SDS011;24447;43.460;25.744;2023-12-20T01:24:15;18.25;;;5.65;;
38693;SDS011;24447;43.460;25.744;2023-12-20T01:26:41;23.58;;;7.72;;
38693;SDS011;24447;43.460;25.744;2023-12-20T01:29:10;25.67;;;8.73;;
38693;SDS011;24447;43.460;25.744;2023-12-20T01:31:36;20.13;;;5.13;;
38693;SDS011;24447;43.460;25.744;2023-12-20T01:34:02;19.38;;;5.60;;
38693;SDS011;24447;43.460;25.744;2023-12-20T01:36:28;15.35;;;4.78;;
38693;SDS011;24447;43.460;25.744;2023-12-20T01:38:54;15.35;;;4.07;;
38693;SDS011;24447;43.460;25.744;2023-12-20T01:41:20;15.05;;;4.97;;
38693;SDS011;24447;43.460;25.744;2023-12-20T01:43:45;13.77;;;4.70;;
38693;SDS011;24447;43.460;25.744;2023-12-20T01:46:11;9.82;;;3.92;;
38693;SDS011;24447;43.460;25.744;2023-12-20T01:48:37;7.38;;;2.90;;
38693;SDS011;24447;43.460;25.744;2023-12-20T01:51:03;16.42;;;5.53;;
38693;SDS011;24447;43.460;25.744;2023-12-20T01:53:30;12.50;;;5.47;;
38693;SDS011;24447;43.460;25.744;2023-12-20T01:55:57;14.02;;;4.40;;
38693;SDS011;24447;43.460;25.744;2023-12-20T01:58:24;24.95;;;5.93;;
38693;SDS011;24447;43.460;25.744;2023-12-20T02:00:50;13.18;;;3.80;;
38693;SDS011;24447;43.460;25.744;2023-12-20T02:03:16;11.02;;;4.38;;
38693;SDS011;24447;43.460;25.744;2023-12-20T02:05:43;5.25;;;2.45;;
38693;SDS011;24447;43.460;25.744;2023-12-20T02:08:10;7.93;;;3.28;;
38693;SDS011;24447;43.460;25.744;2023-12-20T02:10:36;11.95;;;3.92;;
38693;SDS011;24447;43.460;25.744;2023-12-20T02:13:01;13.73;;;3.70;;
38693;SDS011;24447;43.460;25.744;2023-12-20T02:15:27;8.50;;;3.75;;
38693;SDS011;24447;43.460;25.744;2023-12-20T02:17:53;11.23;;;4.78;;
38693;SDS011;24447;43.460;25.744;2023-12-20T02:20:20;21.73;;;9.15;;
38693;SDS011;24447;43.460;25.744;2023-12-20T02:22:45;38.47;;;14.38;;
38693;SDS011;24447;43.460;25.744;2023-12-20T02:25:11;31.95;;;11.63;;
38693;SDS011;24447;43.460;25.744;2023-12-20T02:27:37;32.03;;;6.30;;
38693;SDS011;24447;43.460;25.744;2023-12-20T02:30:04;15.77;;;5.10;;
38693;SDS011;24447;43.460;25.744;2023-12-20T02:32:30;13.18;;;4.10;;
38693;SDS011;24447;43.460;25.744;2023-12-20T02:34:57;12.00;;;3.15;;
38693;SDS011;24447;43.460;25.744;2023-12-20T02:37:23;12.57;;;2.75;;
38693;SDS011;24447;43.460;25.744;2023-12-20T02:39:49;10.68;;;4.03;;
38693;SDS011;24447;43.460;25.744;2023-12-20T02:42:15;4.60;;;2.42;;
38693;SDS011;24447;43.460;25.744;2023-12-20T02:44:41;10.77;;;3.38;;
38693;SDS011;24447;43.460;25.744;2023-12-20T02:47:10;9.93;;;3.90;;
38693;SDS011;24447;43.460;25.744;2023-12-20T02:49:39;8.93;;;3.13;;
38693;SDS011;24447;43.460;25.744;2023-12-20T02:52:05;15.45;;;3.88;;
38693;SDS011;24447;43.460;25.744;2023-12-20T02:54:31;11.35;;;3.42;;
38693;SDS011;24447;43.460;25.744;2023-12-20T02:56:57;16.67;;;4.53;;
38693;SDS011;24447;43.460;25.744;2023-12-20T02:59:22;16.77;;;4.43;;
38693;SDS011;24447;43.460;25.744;2023-12-20T03:01:48;22.50;;;6.53;;
38693;SDS011;24447;43.460;25.744;2023-12-20T03:04:15;17.73;;;6.30;;
38693;SDS011;24447;43.460;25.744;2023-12-20T03:06:40;17.70;;;5.88;;
38693;SDS011;24447;43.460;25.744;2023-12-20T03:09:06;29.90;;;10.90;;
38693;SDS011;24447;43.460;25.744;2023-12-20T03:11:33;21.35;;;7.97;;
38693;SDS011;24447;43.460;25.744;2023-12-20T03:13:58;15.20;;;4.78;;
38693;SDS011;24447;43.460;25.744;2023-12-20T03:16:24;13.05;;;4.63;;
38693;SDS011;24447;43.460;25.744;2023-12-20T03:18:50;8.27;;;3.75;;
38693;SDS011;24447;43.460;25.744;2023-12-20T03:21:16;31.33;;;8.52;;
38693;SDS011;24447;43.460;25.744;2023-12-20T03:23:42;30.83;;;8.77;;
38693;SDS011;24447;43.460;25.744;2023-12-20T03:26:09;23.30;;;7.18;;
38693;SDS011;24447;43.460;25.744;2023-12-20T03:28:38;14.73;;;4.53;;
38693;SDS011;24447;43.460;25.744;2023-12-20T03:31:04;12.60;;;5.18;;
38693;SDS011;24447;43.460;25.744;2023-12-20T03:33:29;13.07;;;4.88;;
38693;SDS011;24447;43.460;25.744;2023-12-20T03:35:55;9.05;;;3.60;;
38693;SDS011;24447;43.460;25.744;2023-12-20T03:38:21;11.30;;;3.65;;
38693;SDS011;24447;43.460;25.744;2023-12-20T03:40:50;16.17;;;4.05;;
38693;SDS011;24447;43.460;25.744;2023-12-20T03:43:16;20.60;;;6.45;;
38693;SDS011;24447;43.460;25.744;2023-12-20T03:45:42;9.90;;;3.30;;
38693;SDS011;24447;43.460;25.744;2023-12-20T03:48:08;9.48;;;2.92;;
38693;SDS011;24447;43.460;25.744;2023-12-20T03:50:35;28.02;;;7.25;;
38693;SDS011;24447;43.460;25.744;2023-12-20T03:53:01;35.10;;;9.38;;
38693;SDS011;24447;43.460;25.744;2023-12-20T03:55:27;33.70;;;11.43;;
38693;SDS011;24447;43.460;25.744;2023-12-20T03:57:53;36.95;;;12.32;;
38693;SDS011;24447;43.460;25.744;2023-12-20T04:00:19;28.70;;;8.13;;
38693;SDS011;24447;43.460;25.744;2023-12-20T04:02:45;27.48;;;9.95;;
38693;SDS011;24447;43.460;25.744;2023-12-20T04:05:11;40.67;;;8.55;;
38693;SDS011;24447;43.460;25.744;2023-12-20T04:07:37;29.23;;;6.10;;
38693;SDS011;24447;43.460;25.744;2023-12-20T04:10:03;12.60;;;4.47;;
38693;SDS011;24447;43.460;25.744;2023-12-20T04:12:30;12.00;;;4.43;;
38693;SDS011;24447;43.460;25.744;2023-12-20T04:14:56;13.32;;;5.32;;
38693;SDS011;24447;43.460;25.744;2023-12-20T04:17:22;10.02;;;3.63;;
38693;SDS011;24447;43.460;25.744;2023-12-20T04:19:48;9.55;;;3.67;;
38693;SDS011;24447;43.460;25.744;2023-12-20T04:22:15;12.75;;;5.30;;
38693;SDS011;24447;43.460;25.744;2023-12-20T04:24:41;10.38;;;3.45;;
38693;SDS011;24447;43.460;25.744;2023-12-20T04:27:10;5.75;;;2.58;;
38693;SDS011;24447;43.460;25.744;2023-12-20T04:29:36;5.38;;;2.80;;
38693;SDS011;24447;43.460;25.744;2023-12-20T04:32:02;6.60;;;2.80;;
38693;SDS011;24447;43.460;25.744;2023-12-20T04:34:28;6.35;;;2.83;;
38693;SDS011;24447;43.460;25.744;2023-12-20T04:36:54;20.63;;;7.43;;
38693;SDS011;24447;43.460;25.744;2023-12-20T04:39:20;22.00;;;8.38;;
38693;SDS011;24447;43.460;25.744;2023-12-20T04:41:46;14.52;;;6.25;;
38693;SDS011;24447;43.460;25.744;2023-12-20T04:44:12;10.13;;;3.60;;
38693;SDS011;24447;43.460;25.744;2023-12-20T04:46:38;10.75;;;4.20;;
38693;SDS011;24447;43.460;25.744;2023-12-20T04:49:04;12.95;;;4.80;;
38693;SDS011;24447;43.460;25.744;2023-12-20T04:51:33;12.93;;;5.57;;
38693;SDS011;24447;43.460;25.744;2023-12-20T04:53:59;7.50;;;2.97;;
38693;SDS011;24447;43.460;25.744;2023-12-20T04:56:25;10.32;;;4.40;;
38693;SDS011;24447;43.460;25.744;2023-12-20T04:58:51;12.95;;;5.03;;
38693;SDS011;24447;43.460;25.744;2023-12-20T05:01:17;13.35;;;4.28;;
38693;SDS011;24447;43.460;25.744;2023-12-20T05:03:43;5.85;;;2.78;;
38693;SDS011;24447;43.460;25.744;2023-12-20T05:06:09;8.73;;;3.58;;
38693;SDS011;24447;43.460;25.744;2023-12-20T05:08:35;8.25;;;3.30;;
38693;SDS011;24447;43.460;25.744;2023-12-20T05:11:01;5.60;;;3.38;;
38693;SDS011;24447;43.460;25.744;2023-12-20T05:13:27;3.90;;;2.33;;
38693;SDS011;24447;43.460;25.744;2023-12-20T05:15:53;12.95;;;5.43;;
38693;SDS011;24447;43.460;25.744;2023-12-20T05:18:20;14.27;;;4.70;;
38693;SDS011;24447;43.460;25.744;2023-12-20T05:20:46;19.60;;;6.32;;
38693;SDS011;24447;43.460;25.744;2023-12-20T05:23:12;8.75;;;4.20;;
38693;SDS011;24447;43.460;25.744;2023-12-20T05:25:39;8.60;;;3.65;;
38693;SDS011;24447;43.460;25.744;2023-12-20T05:28:05;4.35;;;2.92;;
38693;SDS011;24447;43.460;25.744;2023-12-20T05:30:31;5.85;;;2.55;;
38693;SDS011;24447;43.460;25.744;2023-12-20T05:32:57;8.23;;;3.58;;
38693;SDS011;24447;43.460;25.744;2023-12-20T05:35:23;19.25;;;5.20;;
38693;SDS011;24447;43.460;25.744;2023-12-20T05:37:49;16.13;;;6.47;;
38693;SDS011;24447;43.460;25.744;2023-12-20T05:40:15;25.17;;;6.47;;
38693;SDS011;24447;43.460;25.744;2023-12-20T05:42:41;30.10;;;9.18;;
38693;SDS011;24447;43.460;25.744;2023-12-20T05:45:07;20.70;;;7.88;;
38693;SDS011;24447;43.460;25.744;2023-12-20T05:47:33;27.58;;;5.97;;
38693;SDS011;24447;43.460;25.744;2023-12-20T05:49:59;21.05;;;7.40;;
38693;SDS011;24447;43.460;25.744;2023-12-20T05:52:25;25.02;;;7.68;;
38693;SDS011;24447;43.460;25.744;2023-12-20T05:54:51;22.05;;;8.38;;
38693;SDS011;24447;43.460;25.744;2023-12-20T05:57:20;17.17;;;7.07;;
38693;SDS011;24447;43.460;25.744;2023-12-20T05:59:46;11.85;;;5.10;;
38693;SDS011;24447;43.460;25.744;2023-12-20T06:02:11;11.82;;;4.90;;
38693;SDS011;24447;43.460;25.744;2023-12-20T06:04:37;22.48;;;6.07;;
38693;SDS011;24447;43.460;25.744;2023-12-20T06:07:08;17.42;;;6.60;;
38693;SDS011;24447;43.460;25.744;2023-12-20T06:09:34;17.23;;;7.03;;
38693;SDS011;24447;43.460;25.744;2023-12-20T06:12:00;10.52;;;4.60;;
38693;SDS011;24447;43.460;25.744;2023-12-20T06:14:26;8.55;;;3.83;;
38693;SDS011;24447;43.460;25.744;2023-12-20T06:16:52;18.77;;;5.35;;
38693;SDS011;24447;43.460;25.744;2023-12-20T06:19:18;11.48;;;5.07;;
38693;SDS011;24447;43.460;25.744;2023-12-20T06:21:44;11.73;;;4.82;;
38693;SDS011;24447;43.460;25.744;2023-12-20T06:24:10;11.70;;;6.10;;
38693;SDS011;24447;43.460;25.744;2023-12-20T06:26:36;8.02;;;4.13;;
38693;SDS011;24447;43.460;25.744;2023-12-20T06:29:01;13.90;;;5.13;;
38693;SDS011;24447;43.460;25.744;2023-12-20T06:31:27;13.13;;;3.95;;
38693;SDS011;24447;43.460;25.744;2023-12-20T06:33:54;8.27;;;4.03;;
38693;SDS011;24447;43.460;25.744;2023-12-20T06:36:23;9.82;;;4.70;;
38693;SDS011;24447;43.460;25.744;2023-12-20T06:38:49;15.05;;;7.35;;
38693;SDS011;24447;43.460;25.744;2023-12-20T06:41:16;19.17;;;7.90;;
38693;SDS011;24447;43.460;25.744;2023-12-20T06:43:42;10.55;;;5.03;;
38693;SDS011;24447;43.460;25.744;2023-12-20T06:46:08;11.70;;;5.25;;
38693;SDS011;24447;43.460;25.744;2023-12-20T06:48:34;15.07;;;6.60;;
38693;SDS011;24447;43.460;25.744;2023-12-20T06:51:00;18.77;;;6.55;;
38693;SDS011;24447;43.460;25.744;2023-12-20T06:53:30;14.48;;;6.15;;
38693;SDS011;24447;43.460;25.744;2023-12-20T06:55:56;15.63;;;5.78;;
38693;SDS011;24447;43.460;25.744;2023-12-20T06:58:22;11.20;;;5.70;;
38693;SDS011;24447;43.460;25.744;2023-12-20T07:00:48;12.88;;;6.45;;
38693;SDS011;24447;43.460;25.744;2023-12-20T07:03:14;16.92;;;7.80;;
38693;SDS011;24447;43.460;25.744;2023-12-20T07:05:40;23.45;;;11.10;;
38693;SDS011;24447;43.460;25.744;2023-12-20T07:08:06;26.50;;;12.32;;
38693;SDS011;24447;43.460;25.744;2023-12-20T07:10:32;63.25;;;27.63;;
38693;SDS011;24447;43.460;25.744;2023-12-20T07:12:58;53.92;;;24.42;;
38693;SDS011;24447;43.460;25.744;2023-12-20T07:15:24;46.95;;;22.27;;
38693;SDS011;24447;43.460;25.744;2023-12-20T07:17:51;46.50;;;23.23;;
38693;SDS011;24447;43.460;25.744;2023-12-20T07:20:17;46.88;;;25.10;;
38693;SDS011;24447;43.460;25.744;2023-12-20T07:22:43;41.65;;;22.98;;
38693;SDS011;24447;43.460;25.744;2023-12-20T07:25:09;36.95;;;17.55;;
38693;SDS011;24447;43.460;25.744;2023-12-20T07:27:35;42.13;;;19.42;;
38693;SDS011;24447;43.460;25.744;2023-12-20T07:30:01;40.92;;;21.85;;
38693;SDS011;24447;43.460;25.744;2023-12-20T07:32:27;45.70;;;23.15;;
38693;SDS011;24447;43.460;25.744;2023-12-20T07:34:53;47.95;;;24.38;;
38693;SDS011;24447;43.460;25.744;2023-12-20T07:37:19;52.88;;;27.05;;
38693;SDS011;24447;43.460;25.744;2023-12-20T07:39:46;64.82;;;32.95;;
38693;SDS011;24447;43.460;25.744;2023-12-20T07:42:12;86.78;;;42.85;;
38693;SDS011;24447;43.460;25.744;2023-12-20T07:44:37;60.10;;;33.45;;
38693;SDS011;24447;43.460;25.744;2023-12-20T07:47:04;79.70;;;36.55;;
38693;SDS011;24447;43.460;25.744;2023-12-20T07:49:30;83.93;;;41.90;;
38693;SDS011;24447;43.460;25.744;2023-12-20T07:51:56;86.88;;;42.78;;
38693;SDS011;24447;43.460;25.744;2023-12-20T07:54:22;83.32;;;40.50;;
38693;SDS011;24447;43.460;25.744;2023-12-20T07:56:48;79.97;;;40.80;;
38693;SDS011;24447;43.460;25.744;2023-12-20T07:59:15;90.47;;;41.85;;
38693;SDS011;24447;43.460;25.744;2023-12-20T08:01:40;75.78;;;37.15;;
38693;SDS011;24447;43.460;25.744;2023-12-20T08:04:07;83.63;;;38.08;;
38693;SDS011;24447;43.460;25.744;2023-12-20T08:06:33;77.85;;;42.13;;
38693;SDS011;24447;43.460;25.744;2023-12-20T08:08:59;78.93;;;41.13;;
38693;SDS011;24447;43.460;25.744;2023-12-20T08:11:25;67.28;;;36.47;;
38693;SDS011;24447;43.460;25.744;2023-12-20T08:13:51;65.65;;;32.80;;
38693;SDS011;24447;43.460;25.744;2023-12-20T08:16:17;75.45;;;35.95;;
38693;SDS011;24447;43.460;25.744;2023-12-20T08:18:43;71.05;;;35.85;;
38693;SDS011;24447;43.460;25.744;2023-12-20T08:21:09;75.20;;;38.00;;
38693;SDS011;24447;43.460;25.744;2023-12-20T08:23:36;83.55;;;43.10;;
38693;SDS011;24447;43.460;25.744;2023-12-20T08:26:06;95.78;;;45.67;;
38693;SDS011;24447;43.460;25.744;2023-12-20T08:28:32;106.40;;;50.55;;
38693;SDS011;24447;43.460;25.744;2023-12-20T08:30:59;99.85;;;45.58;;
38693;SDS011;24447;43.460;25.744;2023-12-20T08:33:25;106.28;;;47.72;;
38693;SDS011;24447;43.460;25.744;2023-12-20T08:35:51;113.03;;;45.75;;
38693;SDS011;24447;43.460;25.744;2023-12-20T08:38:17;67.60;;;31.10;;
38693;SDS011;24447;43.460;25.744;2023-12-20T08:40:43;79.40;;;38.05;;
38693;SDS011;24447;43.460;25.744;2023-12-20T08:43:09;61.83;;;32.55;;
38693;SDS011;24447;43.460;25.744;2023-12-20T08:45:35;79.35;;;41.72;;
38693;SDS011;24447;43.460;25.744;2023-12-20T08:48:01;61.97;;;30.40;;
38693;SDS011;24447;43.460;25.744;2023-12-20T08:50:28;65.60;;;29.65;;
38693;SDS011;24447;43.460;25.744;2023-12-20T08:52:54;65.93;;;32.35;;
38693;SDS011;24447;43.460;25.744;2023-12-20T08:55:20;66.88;;;27.48;;
38693;SDS011;24447;43.460;25.744;2023-12-20T08:57:46;45.20;;;21.95;;
38693;SDS011;24447;43.460;25.744;2023-12-20T09:00:12;45.47;;;21.20;;
38693;SDS011;24447;43.460;25.744;2023-12-20T09:02:39;33.65;;;15.52;;
38693;SDS011;24447;43.460;25.744;2023-12-20T09:05:05;30.95;;;14.82;;
38693;SDS011;24447;43.460;25.744;2023-12-20T09:07:31;40.17;;;15.18;;
38693;SDS011;24447;43.460;25.744;2023-12-20T09:09:57;31.17;;;13.35;;
38693;SDS011;24447;43.460;25.744;2023-12-20T09:12:24;35.97;;;13.88;;
38693;SDS011;24447;43.460;25.744;2023-12-20T09:14:50;44.08;;;21.33;;
38693;SDS011;24447;43.460;25.744;2023-12-20T09:17:17;43.97;;;20.48;;
38693;SDS011;24447;43.460;25.744;2023-12-20T09:19:43;60.30;;;27.70;;
38693;SDS011;24447;43.460;25.744;2023-12-20T09:22:10;42.50;;;18.38;;
38693;SDS011;24447;43.460;25.744;2023-12-20T09:24:36;33.88;;;16.02;;
38693;SDS011;24447;43.460;25.744;2023-12-20T09:27:03;36.67;;;19.25;;
38693;SDS011;24447;43.460;25.744;2023-12-20T09:29:30;49.47;;;19.90;;
38693;SDS011;24447;43.460;25.744;2023-12-20T09:31:56;37.35;;;19.80;;
38693;SDS011;24447;43.460;25.744;2023-12-20T09:34:22;46.10;;;19.83;;
38693;SDS011;24447;43.460;25.744;2023-12-20T09:36:49;56.33;;;25.65;;
38693;SDS011;24447;43.460;25.744;2023-12-20T09:39:16;53.53;;;23.83;;
38693;SDS011;24447;43.460;25.744;2023-12-20T09:41:51;55.00;;;23.83;;
38693;SDS011;24447;43.460;25.744;2023-12-20T09:44:26;51.67;;;24.45;;
38693;SDS011;24447;43.460;25.744;2023-12-20T09:46:51;28.13;;;15.02;;
38693;SDS011;24447;43.460;25.744;2023-12-20T09:49:18;35.38;;;14.05;;
38693;SDS011;24447;43.460;25.744;2023-12-20T09:51:46;23.23;;;10.25;;
38693;SDS011;24447;43.460;25.744;2023-12-20T09:54:15;23.63;;;10.52;;
38693;SDS011;24447;43.460;25.744;2023-12-20T09:56:42;28.48;;;13.05;;
38693;SDS011;24447;43.460;25.744;2023-12-20T09:59:08;31.67;;;14.75;;
38693;SDS011;24447;43.460;25.744;2023-12-20T10:01:35;29.60;;;13.30;;
38693;SDS011;24447;43.460;25.744;2023-12-20T10:04:02;28.77;;;10.20;;
38693;SDS011;24447;43.460;25.744;2023-12-20T10:06:43;37.63;;;15.45;;
38693;SDS011;24447;43.460;25.744;2023-12-20T10:09:10;44.67;;;18.20;;
38693;SDS011;24447;43.460;25.744;2023-12-20T10:11:37;41.35;;;17.70;;
38693;SDS011;24447;43.460;25.744;2023-12-20T10:14:04;31.83;;;11.82;;
38693;SDS011;24447;43.460;25.744;2023-12-20T10:16:30;30.80;;;13.02;;
38693;SDS011;24447;43.460;25.744;2023-12-20T10:18:57;24.23;;;10.10;;
38693;SDS011;24447;43.460;25.744;2023-12-20T10:21:24;33.00;;;13.98;;
38693;SDS011;24447;43.460;25.744;2023-12-20T10:23:54;26.05;;;9.52;;
38693;SDS011;24447;43.460;25.744;2023-12-20T10:26:21;22.55;;;8.68;;
38693;SDS011;24447;43.460;25.744;2023-12-20T10:28:54;22.08;;;8.32;;
38693;SDS011;24447;43.460;25.744;2023-12-20T10:31:31;23.08;;;8.35;;
38693;SDS011;24447;43.460;25.744;2023-12-20T10:33:58;32.28;;;16.08;;
38693;SDS011;24447;43.460;25.744;2023-12-20T10:36:25;25.10;;;11.40;;
38693;SDS011;24447;43.460;25.744;2023-12-20T10:38:52;27.60;;;11.30;;
38693;SDS011;24447;43.460;25.744;2023-12-20T10:41:28;18.55;;;7.85;;
38693;SDS011;24447;43.460;25.744;2023-12-20T10:43:59;21.30;;;9.07;;
38693;SDS011;24447;43.460;25.744;2023-12-20T10:46:26;24.15;;;8.55;;
38693;SDS011;24447;43.460;25.744;2023-12-20T10:48:54;17.88;;;6.93;;
38693;SDS011;24447;43.460;25.744;2023-12-20T10:51:20;16.52;;;7.13;;
38693;SDS011;24447;43.460;25.744;2023-12-20T10:53:47;15.00;;;7.57;;
38693;SDS011;24447;43.460;25.744;2023-12-20T10:56:15;15.50;;;6.32;;
38693;SDS011;24447;43.460;25.744;2023-12-20T10:58:43;63.28;;;21.58;;
38693;SDS011;24447;43.460;25.744;2023-12-20T11:01:09;30.92;;;14.98;;
38693;SDS011;24447;43.460;25.744;2023-12-20T11:03:38;35.38;;;13.65;;
38693;SDS011;24447;43.460;25.744;2023-12-20T11:08:45;73.22;;;23.77;;
38693;SDS011;24447;43.460;25.744;2023-12-20T11:11:19;64.15;;;25.67;;
38693;SDS011;24447;43.460;25.744;2023-12-20T11:13:54;57.00;;;23.60;;
38693;SDS011;24447;43.460;25.744;2023-12-20T11:16:23;26.15;;;10.32;;
38693;SDS011;24447;43.460;25.744;2023-12-20T11:18:50;37.22;;;10.63;;
38693;SDS011;24447;43.460;25.744;2023-12-20T11:21:17;29.55;;;11.77;;
38693;SDS011;24447;43.460;25.744;2023-12-20T11:23:43;19.38;;;7.43;;
38693;SDS011;24447;43.460;25.744;2023-12-20T11:26:09;23.15;;;8.27;;
38693;SDS011;24447;43.460;25.744;2023-12-20T11:28:35;25.13;;;11.50;;
38693;SDS011;24447;43.460;25.744;2023-12-20T11:31:01;20.25;;;9.02;;
38693;SDS011;24447;43.460;25.744;2023-12-20T11:33:32;22.83;;;9.63;;
38693;SDS011;24447;43.460;25.744;2023-12-20T11:36:01;20.70;;;7.90;;
38693;SDS011;24447;43.460;25.744;2023-12-20T11:38:35;24.70;;;9.75;;
38693;SDS011;24447;43.460;25.744;2023-12-20T11:41:05;24.30;;;10.48;;
38693;SDS011;24447;43.460;25.744;2023-12-20T11:43:32;23.48;;;9.20;;
38693;SDS011;24447;43.460;25.744;2023-12-20T11:46:04;17.20;;;8.20;;
38693;SDS011;24447;43.460;25.744;2023-12-20T11:48:31;18.10;;;9.37;;
38693;SDS011;24447;43.460;25.744;2023-12-20T11:50:58;21.30;;;8.70;;
38693;SDS011;24447;43.460;25.744;2023-12-20T11:53:24;27.77;;;9.80;;
38693;SDS011;24447;43.460;25.744;2023-12-20T11:55:50;34.97;;;13.35;;
38693;SDS011;24447;43.460;25.744;2023-12-20T11:58:16;27.02;;;10.35;;
38693;SDS011;24447;43.460;25.744;2023-12-20T12:00:42;30.88;;;11.95;;
38693;SDS011;24447;43.460;25.744;2023-12-20T12:03:09;23.52;;;7.53;;
38693;SDS011;24447;43.460;25.744;2023-12-20T12:05:35;30.63;;;8.02;;
38693;SDS011;24447;43.460;25.744;2023-12-20T12:08:01;37.50;;;13.82;;
38693;SDS011;24447;43.460;25.744;2023-12-20T12:10:28;17.50;;;8.15;;
38693;SDS011;24447;43.460;25.744;2023-12-20T12:12:55;15.85;;;6.15;;
38693;SDS011;24447;43.460;25.744;2023-12-20T12:15:21;17.95;;;7.15;;
38693;SDS011;24447;43.460;25.744;2023-12-20T12:17:56;14.20;;;6.13;;
38693;SDS011;24447;43.460;25.744;2023-12-20T12:20:22;13.40;;;6.10;;
38693;SDS011;24447;43.460;25.744;2023-12-20T12:23:02;14.93;;;6.20;;
38693;SDS011;24447;43.460;25.744;2023-12-20T12:25:29;18.95;;;7.97;;
38693;SDS011;24447;43.460;25.744;2023-12-20T12:27:56;32.55;;;15.30;;
38693;SDS011;24447;43.460;25.744;2023-12-20T12:30:23;27.67;;;12.48;;
38693;SDS011;24447;43.460;25.744;2023-12-20T12:32:50;28.05;;;9.02;;
38693;SDS011;24447;43.460;25.744;2023-12-20T12:35:17;22.67;;;9.93;;
38693;SDS011;24447;43.460;25.744;2023-12-20T12:37:44;25.25;;;10.05;;
38693;SDS011;24447;43.460;25.744;2023-12-20T12:40:11;28.30;;;11.65;;
38693;SDS011;24447;43.460;25.744;2023-12-20T12:42:38;22.33;;;9.63;;
38693;SDS011;24447;43.460;25.744;2023-12-20T12:45:04;24.05;;;9.73;;
38693;SDS011;24447;43.460;25.744;2023-12-20T12:47:31;19.05;;;7.10;;
38693;SDS011;24447;43.460;25.744;2023-12-20T12:49:57;17.73;;;5.65;;
38693;SDS011;24447;43.460;25.744;2023-12-20T12:52:23;21.40;;;9.85;;
38693;SDS011;24447;43.460;25.744;2023-12-20T12:54:49;26.45;;;12.38;;
38693;SDS011;24447;43.460;25.744;2023-12-20T12:57:15;20.77;;;10.02;;
38693;SDS011;24447;43.460;25.744;2023-12-20T12:59:42;15.60;;;5.70;;
38693;SDS011;24447;43.460;25.744;2023-12-20T13:02:10;17.67;;;6.32;;
38693;SDS011;24447;43.460;25.744;2023-12-20T13:04:36;23.80;;;7.78;;
38693;SDS011;24447;43.460;25.744;2023-12-20T13:07:02;20.15;;;7.15;;
38693;SDS011;24447;43.460;25.744;2023-12-20T13:09:28;40.70;;;20.38;;
38693;SDS011;24447;43.460;25.744;2023-12-20T13:11:54;20.70;;;8.57;;
38693;SDS011;24447;43.460;25.744;2023-12-20T13:14:20;17.60;;;6.00;;
38693;SDS011;24447;43.460;25.744;2023-12-20T13:16:46;26.52;;;11.35;;
38693;SDS011;24447;43.460;25.744;2023-12-20T13:19:12;23.70;;;9.90;;
38693;SDS011;24447;43.460;25.744;2023-12-20T13:21:38;26.40;;;11.65;;
38693;SDS011;24447;43.460;25.744;2023-12-20T13:24:04;36.92;;;9.57;;
38693;SDS011;24447;43.460;25.744;2023-12-20T13:26:30;23.35;;;7.15;;
38693;SDS011;24447;43.460;25.744;2023-12-20T13:28:56;17.63;;;7.82;;
38693;SDS011;24447;43.460;25.744;2023-12-20T13:31:22;16.73;;;6.10;;
38693;SDS011;24447;43.460;25.744;2023-12-20T13:33:48;14.95;;;5.07;;
38693;SDS011;24447;43.460;25.744;2023-12-20T13:36:14;27.75;;;8.85;;
38693;SDS011;24447;43.460;25.744;2023-12-20T13:38:40;14.55;;;5.50;;
38693;SDS011;24447;43.460;25.744;2023-12-20T13:41:06;17.38;;;4.72;;
38693;SDS011;24447;43.460;25.744;2023-12-20T13:43:32;14.85;;;4.85;;
38693;SDS011;24447;43.460;25.744;2023-12-20T13:45:58;7.50;;;3.63;;
38693;SDS011;24447;43.460;25.744;2023-12-20T13:48:24;17.83;;;5.43;;
38693;SDS011;24447;43.460;25.744;2023-12-20T13:50:50;12.23;;;5.05;;
38693;SDS011;24447;43.460;25.744;2023-12-20T13:53:16;16.60;;;4.57;;
38693;SDS011;24447;43.460;25.744;2023-12-20T13:55:42;8.40;;;3.83;;
38693;SDS011;24447;43.460;25.744;2023-12-20T13:58:08;8.50;;;3.67;;
38693;SDS011;24447;43.460;25.744;2023-12-20T14:00:37;9.02;;;4.25;;
38693;SDS011;24447;43.460;25.744;2023-12-20T14:03:03;10.57;;;3.63;;
38693;SDS011;24447;43.460;25.744;2023-12-20T14:05:30;8.57;;;3.40;;
38693;SDS011;24447;43.460;25.744;2023-12-20T14:07:56;9.82;;;3.63;;
38693;SDS011;24447;43.460;25.744;2023-12-20T14:10:22;20.50;;;5.70;;
38693;SDS011;24447;43.460;25.744;2023-12-20T14:12:51;15.45;;;5.10;;
38693;SDS011;24447;43.460;25.744;2023-12-20T14:15:17;12.40;;;4.25;;
38693;SDS011;24447;43.460;25.744;2023-12-20T14:17:43;12.40;;;4.97;;